KLAN/LAN METAR and TAF weather

Enter ICAO airport designator
Station Type Date Time Source
KLAN METAR 2020/01/21 15:32 UTC NOAA

KLAN 211532Z 21009KT 3SM HZ FEW002 M06/M11 A3056 RMK AO2 T10561111


Station Type Date Time Source
KLAN Decoded METAR 2020/01/21 15:32 UTC NOAA

CAPITAL CITY AIRPORT, MI, United States (KLAN) 42-47N 084-35W 264M
Jan 21, 2020 - 10:32 AM EST / 2020.01.21 1532 UTC
Wind: from the SSW (210 degrees) at 10 MPH (9 KT):0
Visibility: 3 mile(s):0
Sky conditions: mostly clear
Weather: haze
Temperature: 21.9 F (-5.6 C)
Windchill: 10 F (-12 C):1
Dew Point: 12.0 F (-11.1 C)
Relative Humidity: 65%
Pressure (altimeter): 30.56 in. Hg (1034 hPa)
ob: KLAN 211532Z 21009KT 3SM HZ FEW002 M06/M11 A3056 RMK AO2 T10561111
cycle: 15

Station Type Date Time Source
KLAN TAF 2020/01/21 12:22 UTC NOAA

TAF KLAN 211120Z 2112/2212 23004KT P6SM BKN028
FM211600 25009KT P6SM SCT035

Example: see airport list